sensor_id;sensor_type;location;lat;lon;timestamp;pressure;altitude;pressure_sealevel;temperature;humidity
4024;BME280;2026;51.002;13.668;2022-12-07T00:03:44;98877.44;;;0.41;87.19
4024;BME280;2026;51.002;13.668;2022-12-07T00:08:47;98872.13;;;0.42;88.22
4024;BME280;2026;51.002;13.668;2022-12-07T00:13:52;98865.34;;;0.41;87.32
4024;BME280;2026;51.002;13.668;2022-12-07T00:18:57;98869.06;;;0.30;88.07
4024;BME280;2026;51.002;13.668;2022-12-07T00:24:01;98867.75;;;0.26;88.64
4024;BME280;2026;51.002;13.668;2022-12-07T00:29:07;98856.91;;;0.39;88.21
4024;BME280;2026;51.002;13.668;2022-12-07T00:34:14;98851.44;;;0.26;87.51
4024;BME280;2026;51.002;13.668;2022-12-07T00:39:17;98859.19;;;0.34;87.66
4024;BME280;2026;51.002;13.668;2022-12-07T00:44:20;98848.97;;;0.41;87.77
4024;BME280;2026;51.002;13.668;2022-12-07T00:49:24;98846.72;;;0.54;88.01
4024;BME280;2026;51.002;13.668;2022-12-07T00:54:27;98833.47;;;0.32;88.40
4024;BME280;2026;51.002;13.668;2022-12-07T00:59:30;98836.53;;;0.36;88.81
4024;BME280;2026;51.002;13.668;2022-12-07T01:04:35;98837.81;;;0.40;88.28
4024;BME280;2026;51.002;13.668;2022-12-07T01:09:38;98838.31;;;0.35;88.59
4024;BME280;2026;51.002;13.668;2022-12-07T01:14:41;98838.63;;;0.41;87.95
4024;BME280;2026;51.002;13.668;2022-12-07T01:19:45;98838.78;;;0.47;88.22
4024;BME280;2026;51.002;13.668;2022-12-07T01:24:48;98835.91;;;0.42;88.41
4024;BME280;2026;51.002;13.668;2022-12-07T01:29:51;98833.94;;;0.44;87.35
4024;BME280;2026;51.002;13.668;2022-12-07T01:34:55;98829.41;;;0.38;88.13
4024;BME280;2026;51.002;13.668;2022-12-07T01:39:58;98835.72;;;0.27;88.82
4024;BME280;2026;51.002;13.668;2022-12-07T01:45:38;98833.94;;;0.36;88.27
4024;BME280;2026;51.002;13.668;2022-12-07T01:50:45;98833.00;;;0.20;88.63
4024;BME280;2026;51.002;13.668;2022-12-07T01:55:52;98839.44;;;0.25;89.24
4024;BME280;2026;51.002;13.668;2022-12-07T02:00:55;98842.69;;;0.18;88.02
4024;BME280;2026;51.002;13.668;2022-12-07T02:05:59;98825.72;;;-0.01;89.29
4024;BME280;2026;51.002;13.668;2022-12-07T02:11:04;98828.13;;;0.01;89.38
4024;BME280;2026;51.002;13.668;2022-12-07T02:16:21;98819.72;;;0.15;88.22
4024;BME280;2026;51.002;13.668;2022-12-07T02:21:34;98818.47;;;-0.06;88.71
4024;BME280;2026;51.002;13.668;2022-12-07T02:32:21;98811.97;;;-0.10;89.16
4024;BME280;2026;51.002;13.668;2022-12-07T02:37:33;98811.97;;;0.07;89.18
4024;BME280;2026;51.002;13.668;2022-12-07T02:42:41;98804.56;;;0.04;88.88
4024;BME280;2026;51.002;13.668;2022-12-07T02:47:48;98797.09;;;0.09;88.06
4024;BME280;2026;51.002;13.668;2022-12-07T02:52:53;98785.47;;;0.13;87.55
4024;BME280;2026;51.002;13.668;2022-12-07T02:58:14;98782.56;;;0.08;87.35
4024;BME280;2026;51.002;13.668;2022-12-07T03:03:22;98785.78;;;-0.07;87.38
4024;BME280;2026;51.002;13.668;2022-12-07T03:08:31;98783.53;;;-0.01;87.89
4024;BME280;2026;51.002;13.668;2022-12-07T03:13:41;98779.97;;;0.08;87.03
4024;BME280;2026;51.002;13.668;2022-12-07T03:18:54;98778.69;;;-0.05;87.08
4024;BME280;2026;51.002;13.668;2022-12-07T03:24:00;98772.72;;;-0.13;86.96
4024;BME280;2026;51.002;13.668;2022-12-07T03:29:08;98757.06;;;-0.12;86.07
4024;BME280;2026;51.002;13.668;2022-12-07T03:34:18;98759.78;;;-0.13;85.77
4024;BME280;2026;51.002;13.668;2022-12-07T03:39:26;98761.41;;;-0.12;85.34
4024;BME280;2026;51.002;13.668;2022-12-07T03:44:32;98767.06;;;-0.25;86.02
4024;BME280;2026;51.002;13.668;2022-12-07T03:49:42;98763.50;;;-0.24;86.17
4024;BME280;2026;51.002;13.668;2022-12-07T03:54:49;98750.56;;;-0.24;85.60
4024;BME280;2026;51.002;13.668;2022-12-07T03:59:56;98760.75;;;-0.06;84.85
4024;BME280;2026;51.002;13.668;2022-12-07T04:05:01;98755.44;;;-0.13;85.00
4024;BME280;2026;51.002;13.668;2022-12-07T04:10:05;98744.78;;;-0.18;84.47
4024;BME280;2026;51.002;13.668;2022-12-07T04:15:09;98742.81;;;-0.24;84.79
4024;BME280;2026;51.002;13.668;2022-12-07T04:20:13;98731.38;;;-0.30;84.93
4024;BME280;2026;51.002;13.668;2022-12-07T04:25:16;98724.09;;;-0.35;84.61
4024;BME280;2026;51.002;13.668;2022-12-07T04:30:19;98720.53;;;-0.50;85.67
4024;BME280;2026;51.002;13.668;2022-12-07T04:35:24;98720.22;;;-0.47;85.13
4024;BME280;2026;51.002;13.668;2022-12-07T04:40:26;98715.72;;;-0.45;84.79
4024;BME280;2026;51.002;13.668;2022-12-07T04:45:30;98700.34;;;-0.38;84.84
4024;BME280;2026;51.002;13.668;2022-12-07T04:50:35;98675.00;;;-0.51;85.17
4024;BME280;2026;51.002;13.668;2022-12-07T04:55:46;98680.81;;;-0.57;84.65
4024;BME280;2026;51.002;13.668;2022-12-07T05:00:49;98683.56;;;-0.59;85.17
4024;BME280;2026;51.002;13.668;2022-12-07T05:05:54;98676.13;;;-0.62;85.04
4024;BME280;2026;51.002;13.668;2022-12-07T05:10:57;98665.94;;;-0.47;84.27
4024;BME280;2026;51.002;13.668;2022-12-07T05:16:00;98672.25;;;-0.66;84.82
4024;BME280;2026;51.002;13.668;2022-12-07T05:21:04;98664.97;;;-0.71;84.53
4024;BME280;2026;51.002;13.668;2022-12-07T05:26:07;98659.66;;;-0.61;83.78
4024;BME280;2026;51.002;13.668;2022-12-07T05:31:10;98661.59;;;-0.63;84.26
4024;BME280;2026;51.002;13.668;2022-12-07T05:36:15;98660.47;;;-0.61;84.47
4024;BME280;2026;51.002;13.668;2022-12-07T05:41:19;98661.75;;;-0.73;84.76
4024;BME280;2026;51.002;13.668;2022-12-07T05:46:39;98645.91;;;-0.53;83.47
4024;BME280;2026;51.002;13.668;2022-12-07T05:51:44;98638.50;;;-0.48;83.12
4024;BME280;2026;51.002;13.668;2022-12-07T05:56:47;98635.94;;;-0.56;83.07
4024;BME280;2026;51.002;13.668;2022-12-07T06:01:50;98631.22;;;-0.44;83.31
4024;BME280;2026;51.002;13.668;2022-12-07T06:06:55;98622.69;;;-0.37;82.98
4024;BME280;2026;51.002;13.668;2022-12-07T06:11:59;98622.34;;;-0.42;83.35
4024;BME280;2026;51.002;13.668;2022-12-07T06:17:20;98614.59;;;-0.34;83.58
4024;BME280;2026;51.002;13.668;2022-12-07T06:22:24;98611.50;;;-0.37;83.29
4024;BME280;2026;51.002;13.668;2022-12-07T06:27:27;98614.25;;;-0.39;83.81
4024;BME280;2026;51.002;13.668;2022-12-07T06:32:30;98603.91;;;-0.30;83.64
4024;BME280;2026;51.002;13.668;2022-12-07T06:37:35;98621.47;;;-0.09;83.93
4024;BME280;2026;51.002;13.668;2022-12-07T06:42:38;98628.09;;;-0.15;85.36
4024;BME280;2026;51.002;13.668;2022-12-07T06:47:41;98625.22;;;-0.20;86.35
4024;BME280;2026;51.002;13.668;2022-12-07T06:52:47;98625.22;;;-0.20;87.15
4024;BME280;2026;51.002;13.668;2022-12-07T06:57:50;98629.56;;;-0.12;87.39
4024;BME280;2026;51.002;13.668;2022-12-07T07:02:53;98632.47;;;-0.07;87.63
4024;BME280;2026;51.002;13.668;2022-12-07T07:07:57;98625.50;;;-0.07;87.17
4024;BME280;2026;51.002;13.668;2022-12-07T07:13:20;98631.84;;;-0.18;88.67
4024;BME280;2026;51.002;13.668;2022-12-07T07:18:24;98641.72;;;-0.29;88.71
4024;BME280;2026;51.002;13.668;2022-12-07T07:23:28;98642.69;;;-0.39;90.10
4024;BME280;2026;51.002;13.668;2022-12-07T07:28:31;98649.16;;;-0.35;89.73
4024;BME280;2026;51.002;13.668;2022-12-07T07:33:34;98657.88;;;-0.27;89.79
4024;BME280;2026;51.002;13.668;2022-12-07T07:38:39;98656.25;;;-0.20;90.10
4024;BME280;2026;51.002;13.668;2022-12-07T07:43:42;98648.97;;;-0.16;90.30
4024;BME280;2026;51.002;13.668;2022-12-07T07:48:45;98657.81;;;-0.02;90.14
4024;BME280;2026;51.002;13.668;2022-12-07T07:53:49;98660.72;;;0.03;89.93
4024;BME280;2026;51.002;13.668;2022-12-07T07:58:52;98664.41;;;0.08;90.29
4024;BME280;2026;51.002;13.668;2022-12-07T08:03:55;98661.97;;;0.07;90.64
4024;BME280;2026;51.002;13.668;2022-12-07T08:08:59;98659.03;;;0.27;89.00
4024;BME280;2026;51.002;13.668;2022-12-07T08:14:02;98671.91;;;0.43;91.06
4024;BME280;2026;51.002;13.668;2022-12-07T08:19:05;98670.09;;;0.44;89.22
4024;BME280;2026;51.002;13.668;2022-12-07T08:24:10;98657.63;;;0.47;89.01
4024;BME280;2026;51.002;13.668;2022-12-07T08:29:13;98652.78;;;0.53;88.90
4024;BME280;2026;51.002;13.668;2022-12-07T08:34:16;98651.28;;;0.90;87.54
4024;BME280;2026;51.002;13.668;2022-12-07T08:39:20;98642.88;;;0.88;87.55
4024;BME280;2026;51.002;13.668;2022-12-07T08:44:32;98655.78;;;0.96;86.27
4024;BME280;2026;51.002;13.668;2022-12-07T08:49:37;98659.69;;;0.92;86.52
4024;BME280;2026;51.002;13.668;2022-12-07T08:54:43;98653.69;;;1.15;86.32
4024;BME280;2026;51.002;13.668;2022-12-07T08:59:47;98654.44;;;1.00;86.50
4024;BME280;2026;51.002;13.668;2022-12-07T09:04:50;98655.41;;;0.99;86.48
4024;BME280;2026;51.002;13.668;2022-12-07T09:09:54;98656.28;;;1.15;86.51
4024;BME280;2026;51.002;13.668;2022-12-07T09:15:00;98660.28;;;1.41;84.78
4024;BME280;2026;51.002;13.668;2022-12-07T09:20:05;98656.09;;;1.40;84.49
4024;BME280;2026;51.002;13.668;2022-12-07T09:25:10;98652.44;;;1.49;83.84
4024;BME280;2026;51.002;13.668;2022-12-07T09:30:13;98656.41;;;1.60;83.30
4024;BME280;2026;51.002;13.668;2022-12-07T09:35:16;98657.38;;;1.44;84.19
4024;BME280;2026;51.002;13.668;2022-12-07T09:40:22;98671.31;;;1.43;84.01
4024;BME280;2026;51.002;13.668;2022-12-07T09:45:31;98659.28;;;1.65;81.82
4024;BME280;2026;51.002;13.668;2022-12-07T09:50:35;98655.19;;;1.71;82.26
4024;BME280;2026;51.002;13.668;2022-12-07T09:55:41;98662.97;;;1.71;83.55
4024;BME280;2026;51.002;13.668;2022-12-07T10:00:44;98651.72;;;2.24;80.35
4024;BME280;2026;51.002;13.668;2022-12-07T10:05:49;98650.13;;;2.23;80.43
4024;BME280;2026;51.002;13.668;2022-12-07T10:10:55;98633.56;;;2.09;81.32
4024;BME280;2026;51.002;13.668;2022-12-07T10:15:59;98627.75;;;2.22;81.07
4024;BME280;2026;51.002;13.668;2022-12-07T10:21:13;98632.47;;;2.33;79.68
4024;BME280;2026;51.002;13.668;2022-12-07T10:26:27;98627.53;;;2.38;80.33
4024;BME280;2026;51.002;13.668;2022-12-07T10:31:30;98628.78;;;2.42;80.95
4024;BME280;2026;51.002;13.668;2022-12-07T10:36:35;98625.97;;;2.59;79.84
4024;BME280;2026;51.002;13.668;2022-12-07T10:41:53;98627.44;;;2.47;80.04
4024;BME280;2026;51.002;13.668;2022-12-07T10:52:30;98624.84;;;2.47;79.42
4024;BME280;2026;51.002;13.668;2022-12-07T10:57:47;98610.25;;;2.31;80.84
4024;BME280;2026;51.002;13.668;2022-12-07T11:03:13;98602.03;;;2.42;80.12
4024;BME280;2026;51.002;13.668;2022-12-07T11:08:33;98603.22;;;2.61;79.93
4024;BME280;2026;51.002;13.668;2022-12-07T11:13:48;98601.38;;;2.55;80.90
4024;BME280;2026;51.002;13.668;2022-12-07T11:19:06;98597.88;;;2.48;81.90
4024;BME280;2026;51.002;13.668;2022-12-07T11:24:17;98599.75;;;2.54;81.63
4024;BME280;2026;51.002;13.668;2022-12-07T11:29:33;98586.78;;;2.17;82.14
4024;BME280;2026;51.002;13.668;2022-12-07T11:34:45;98602.00;;;2.05;84.96
4024;BME280;2026;51.002;13.668;2022-12-07T11:39:54;98592.41;;;1.76;85.65
4024;BME280;2026;51.002;13.668;2022-12-07T11:45:02;98589.84;;;1.91;85.61
4024;BME280;2026;51.002;13.668;2022-12-07T11:50:23;98590.53;;;1.84;85.49
4024;BME280;2026;51.002;13.668;2022-12-07T11:55:32;98581.03;;;2.07;84.99
4024;BME280;2026;51.002;13.668;2022-12-07T12:00:43;98582.03;;;2.21;84.55
4024;BME280;2026;51.002;13.668;2022-12-07T12:05:46;98585.75;;;2.33;84.14
4024;BME280;2026;51.002;13.668;2022-12-07T12:10:55;98575.19;;;2.35;83.26
4024;BME280;2026;51.002;13.668;2022-12-07T12:16:35;98567.28;;;2.06;83.27
4024;BME280;2026;51.002;13.668;2022-12-07T12:21:42;98574.53;;;2.11;84.02
4024;BME280;2026;51.002;13.668;2022-12-07T12:26:51;98581.69;;;1.94;84.07
4024;BME280;2026;51.002;13.668;2022-12-07T12:32:11;98596.56;;;1.31;87.11
4024;BME280;2026;51.002;13.668;2022-12-07T12:37:43;98590.44;;;1.09;87.14
4024;BME280;2026;51.002;13.668;2022-12-07T12:42:48;98584.50;;;1.00;88.22
4024;BME280;2026;51.002;13.668;2022-12-07T12:47:59;98575.44;;;1.04;86.87
4024;BME280;2026;51.002;13.668;2022-12-07T12:53:11;98579.03;;;1.18;86.96
4024;BME280;2026;51.002;13.668;2022-12-07T12:58:30;98582.53;;;1.02;87.52
4024;BME280;2026;51.002;13.668;2022-12-07T13:03:35;98574.22;;;0.92;88.35
4024;BME280;2026;51.002;13.668;2022-12-07T13:08:40;98568.69;;;0.95;89.46
4024;BME280;2026;51.002;13.668;2022-12-07T13:13:44;98564.91;;;1.21;88.59
4024;BME280;2026;51.002;13.668;2022-12-07T13:18:48;98557.06;;;1.29;88.55
4024;BME280;2026;51.002;13.668;2022-12-07T13:23:56;98550.31;;;1.58;86.47
4024;BME280;2026;51.002;13.668;2022-12-07T13:29:07;98553.63;;;1.52;86.98
4024;BME280;2026;51.002;13.668;2022-12-07T13:34:31;98547.34;;;1.62;86.37
4024;BME280;2026;51.002;13.668;2022-12-07T13:39:35;98540.66;;;1.82;86.50
4024;BME280;2026;51.002;13.668;2022-12-07T13:44:47;98536.53;;;1.73;86.12
4024;BME280;2026;51.002;13.668;2022-12-07T13:49:53;98538.03;;;1.97;86.12
4024;BME280;2026;51.002;13.668;2022-12-07T13:54:58;98551.38;;;1.79;85.68
4024;BME280;2026;51.002;13.668;2022-12-07T14:00:04;98557.72;;;1.62;87.81
4024;BME280;2026;51.002;13.668;2022-12-07T14:05:14;98571.16;;;1.12;89.96
4024;BME280;2026;51.002;13.668;2022-12-07T14:10:28;98567.47;;;1.06;90.99
4024;BME280;2026;51.002;13.668;2022-12-07T14:15:33;98560.91;;;1.33;90.50
4024;BME280;2026;51.002;13.668;2022-12-07T14:20:40;98558.59;;;1.39;87.53
4024;BME280;2026;51.002;13.668;2022-12-07T14:25:48;98558.63;;;1.69;85.23
4024;BME280;2026;51.002;13.668;2022-12-07T14:30:52;98555.84;;;1.85;84.71
4024;BME280;2026;51.002;13.668;2022-12-07T14:35:57;98544.84;;;1.83;83.54
4024;BME280;2026;51.002;13.668;2022-12-07T14:41:00;98554.50;;;1.74;82.67
4024;BME280;2026;51.002;13.668;2022-12-07T14:46:17;98550.13;;;1.75;83.09
4024;BME280;2026;51.002;13.668;2022-12-07T14:51:21;98540.41;;;1.62;83.31
4024;BME280;2026;51.002;13.668;2022-12-07T14:56:44;98546.75;;;1.59;84.08
4024;BME280;2026;51.002;13.668;2022-12-07T15:01:50;98541.19;;;1.63;83.11
4024;BME280;2026;51.002;13.668;2022-12-07T15:06:59;98550.13;;;1.60;83.07
4024;BME280;2026;51.002;13.668;2022-12-07T15:12:03;98547.06;;;1.56;84.30
4024;BME280;2026;51.002;13.668;2022-12-07T15:17:06;98550.94;;;1.60;82.63
4024;BME280;2026;51.002;13.668;2022-12-07T15:22:16;98551.84;;;1.68;82.04
4024;BME280;2026;51.002;13.668;2022-12-07T15:27:19;98558.34;;;1.64;82.43
4024;BME280;2026;51.002;13.668;2022-12-07T15:32:22;98565.41;;;1.55;82.59
4024;BME280;2026;51.002;13.668;2022-12-07T15:37:27;98549.56;;;1.65;81.58
4024;BME280;2026;51.002;13.668;2022-12-07T15:42:30;98560.78;;;1.50;82.43
4024;BME280;2026;51.002;13.668;2022-12-07T15:47:34;98558.19;;;1.50;81.80
4024;BME280;2026;51.002;13.668;2022-12-07T15:52:59;98555.84;;;1.55;83.19
4024;BME280;2026;51.002;13.668;2022-12-07T15:58:02;98552.72;;;1.45;83.59
4024;BME280;2026;51.002;13.668;2022-12-07T16:03:05;98558.44;;;1.55;83.05
4024;BME280;2026;51.002;13.668;2022-12-07T16:08:10;98558.25;;;1.57;82.44
4024;BME280;2026;51.002;13.668;2022-12-07T16:13:13;98551.72;;;1.46;82.94
4024;BME280;2026;51.002;13.668;2022-12-07T16:18:16;98561.09;;;1.32;83.13
4024;BME280;2026;51.002;13.668;2022-12-07T16:23:20;98558.69;;;1.30;82.35
4024;BME280;2026;51.002;13.668;2022-12-07T16:28:23;98555.47;;;1.28;82.35
4024;BME280;2026;51.002;13.668;2022-12-07T16:33:26;98556.47;;;1.27;82.32
4024;BME280;2026;51.002;13.668;2022-12-07T16:38:30;98556.81;;;1.39;80.85
4024;BME280;2026;51.002;13.668;2022-12-07T16:43:34;98558.16;;;1.35;81.25
4024;BME280;2026;51.002;13.668;2022-12-07T16:48:38;98558.69;;;1.30;80.84
4024;BME280;2026;51.002;13.668;2022-12-07T16:53:43;98564.91;;;1.21;81.32
4024;BME280;2026;51.002;13.668;2022-12-07T16:58:46;98575.38;;;1.28;82.09
4024;BME280;2026;51.002;13.668;2022-12-07T17:03:50;98572.88;;;1.19;82.71
4024;BME280;2026;51.002;13.668;2022-12-07T17:08:56;98568.66;;;1.03;84.48
4024;BME280;2026;51.002;13.668;2022-12-07T17:13:59;98568.56;;;1.12;84.82
4024;BME280;2026;51.002;13.668;2022-12-07T17:19:20;98574.38;;;1.14;84.60
4024;BME280;2026;51.002;13.668;2022-12-07T17:24:24;98565.97;;;1.12;85.26
4024;BME280;2026;51.002;13.668;2022-12-07T17:29:27;98572.50;;;1.23;84.68
4024;BME280;2026;51.002;13.668;2022-12-07T17:34:30;98562.75;;;1.10;85.20
4024;BME280;2026;51.002;13.668;2022-12-07T17:39:34;98561.06;;;1.17;84.45
4024;BME280;2026;51.002;13.668;2022-12-07T17:44:37;98563.09;;;1.07;84.41
4024;BME280;2026;51.002;13.668;2022-12-07T17:49:40;98572.19;;;1.02;84.72
4024;BME280;2026;51.002;13.668;2022-12-07T17:54:45;98574.72;;;1.11;83.75
4024;BME280;2026;51.002;13.668;2022-12-07T17:59:48;98570.19;;;1.13;83.76
4024;BME280;2026;51.002;13.668;2022-12-07T18:04:51;98567.38;;;1.14;83.76
4024;BME280;2026;51.002;13.668;2022-12-07T18:09:56;98564.25;;;1.04;84.31
4024;BME280;2026;51.002;13.668;2022-12-07T18:14:59;98579.25;;;1.09;84.39
4024;BME280;2026;51.002;13.668;2022-12-07T18:20:04;98580.09;;;1.09;84.32
4024;BME280;2026;51.002;13.668;2022-12-07T18:25:08;98567.88;;;0.95;82.88
4024;BME280;2026;51.002;13.668;2022-12-07T18:30:12;98575.19;;;0.91;82.47
4024;BME280;2026;51.002;13.668;2022-12-07T18:35:15;98579.22;;;0.70;83.76
4024;BME280;2026;51.002;13.668;2022-12-07T18:40:19;98579.88;;;0.72;83.08
4024;BME280;2026;51.002;13.668;2022-12-07T18:45:22;98578.94;;;0.65;83.16
4024;BME280;2026;51.002;13.668;2022-12-07T18:50:26;98582.06;;;0.52;83.71
4024;BME280;2026;51.002;13.668;2022-12-07T18:55:30;98579.31;;;0.54;84.08
4024;BME280;2026;51.002;13.668;2022-12-07T19:00:33;98578.22;;;0.48;85.07
4024;BME280;2026;51.002;13.668;2022-12-07T19:05:37;98578.13;;;0.41;85.25
4024;BME280;2026;51.002;13.668;2022-12-07T19:10:41;98574.81;;;0.47;85.58
4024;BME280;2026;51.002;13.668;2022-12-07T19:15:44;98574.19;;;0.45;85.23
4024;BME280;2026;51.002;13.668;2022-12-07T19:20:47;98564.88;;;0.36;85.41
4024;BME280;2026;51.002;13.668;2022-12-07T19:25:54;98569.69;;;0.39;85.55
4024;BME280;2026;51.002;13.668;2022-12-07T19:30:57;98560.88;;;0.57;84.60
4024;BME280;2026;51.002;13.668;2022-12-07T19:36:00;98569.31;;;0.50;85.24
4024;BME280;2026;51.002;13.668;2022-12-07T19:41:05;98567.00;;;0.56;85.24
4024;BME280;2026;51.002;13.668;2022-12-07T19:46:08;98560.22;;;0.55;84.83
4024;BME280;2026;51.002;13.668;2022-12-07T19:51:11;98567.84;;;0.56;84.52
4024;BME280;2026;51.002;13.668;2022-12-07T19:56:17;98564.72;;;0.61;84.76
4024;BME280;2026;51.002;13.668;2022-12-07T20:01:20;98562.59;;;0.64;84.73
4024;BME280;2026;51.002;13.668;2022-12-07T20:06:23;98558.50;;;0.70;84.85
4024;BME280;2026;51.002;13.668;2022-12-07T20:11:28;98553.69;;;0.67;84.54
4024;BME280;2026;51.002;13.668;2022-12-07T20:16:49;98554.47;;;0.68;83.96
4024;BME280;2026;51.002;13.668;2022-12-07T20:21:52;98552.88;;;0.67;84.29
4024;BME280;2026;51.002;13.668;2022-12-07T20:26:56;98545.69;;;0.54;85.04
4024;BME280;2026;51.002;13.668;2022-12-07T20:31:59;98541.78;;;0.58;83.84
4024;BME280;2026;51.002;13.668;2022-12-07T20:37:03;98552.53;;;0.70;83.76
4024;BME280;2026;51.002;13.668;2022-12-07T20:42:07;98542.72;;;0.65;83.54
4024;BME280;2026;51.002;13.668;2022-12-07T20:47:28;98558.78;;;0.52;84.80
4024;BME280;2026;51.002;13.668;2022-12-07T20:52:31;98543.84;;;0.62;84.13
4024;BME280;2026;51.002;13.668;2022-12-07T20:57:35;98537.59;;;0.57;83.84
4024;BME280;2026;51.002;13.668;2022-12-07T21:02:38;98545.06;;;0.52;84.25
4024;BME280;2026;51.002;13.668;2022-12-07T21:07:43;98540.88;;;0.50;84.77
4024;BME280;2026;51.002;13.668;2022-12-07T21:12:47;98542.31;;;0.53;84.24
4024;BME280;2026;51.002;13.668;2022-12-07T21:17:56;98539.88;;;0.52;84.62
4024;BME280;2026;51.002;13.668;2022-12-07T21:23:06;98537.91;;;0.54;84.02
4024;BME280;2026;51.002;13.668;2022-12-07T21:28:10;98545.06;;;0.52;83.67
4024;BME280;2026;51.002;13.668;2022-12-07T21:33:14;98543.91;;;0.54;84.14
4024;BME280;2026;51.002;13.668;2022-12-07T21:38:17;98537.69;;;0.87;86.97
4024;BME280;2026;51.002;13.668;2022-12-07T21:43:21;98542.97;;;0.70;83.64
4024;BME280;2026;51.002;13.668;2022-12-07T21:48:24;98531.56;;;0.80;83.44
4024;BME280;2026;51.002;13.668;2022-12-07T21:53:27;98538.00;;;0.69;82.86
4024;BME280;2026;51.002;13.668;2022-12-07T21:58:31;98541.44;;;0.61;83.93
4024;BME280;2026;51.002;13.668;2022-12-07T22:03:34;98526.88;;;0.60;83.85
4024;BME280;2026;51.002;13.668;2022-12-07T22:08:37;98527.50;;;0.62;83.86
4024;BME280;2026;51.002;13.668;2022-12-07T22:13:43;98526.59;;;0.55;84.12
4024;BME280;2026;51.002;13.668;2022-12-07T22:19:11;98532.00;;;0.68;82.96
4024;BME280;2026;51.002;13.668;2022-12-07T22:24:14;98530.72;;;0.64;83.38
4024;BME280;2026;51.002;13.668;2022-12-07T22:29:18;98537.81;;;0.70;83.21
4024;BME280;2026;51.002;13.668;2022-12-07T22:34:22;98536.25;;;0.61;83.07
4024;BME280;2026;51.002;13.668;2022-12-07T22:39:25;98527.84;;;0.82;82.15
4024;BME280;2026;51.002;13.668;2022-12-07T22:44:30;98522.50;;;0.84;82.30
4024;BME280;2026;51.002;13.668;2022-12-07T22:49:33;98513.41;;;0.88;82.16
4024;BME280;2026;51.002;13.668;2022-12-07T22:54:36;98516.75;;;0.73;82.06
4024;BME280;2026;51.002;13.668;2022-12-07T22:59:41;98506.41;;;0.73;81.95
4024;BME280;2026;51.002;13.668;2022-12-07T23:04:43;98510.16;;;0.71;82.05
4024;BME280;2026;51.002;13.668;2022-12-07T23:09:46;98503.63;;;0.75;82.92
4024;BME280;2026;51.002;13.668;2022-12-07T23:14:51;98512.22;;;0.75;82.09
4024;BME280;2026;51.002;13.668;2022-12-07T23:19:55;98507.72;;;0.69;81.97
4024;BME280;2026;51.002;13.668;2022-12-07T23:24:58;98504.72;;;0.81;81.73
4024;BME280;2026;51.002;13.668;2022-12-07T23:30:03;98497.75;;;0.81;81.94
4024;BME280;2026;51.002;13.668;2022-12-07T23:35:07;98508.63;;;0.76;82.33
4024;BME280;2026;51.002;13.668;2022-12-07T23:40:10;98500.31;;;0.66;82.81
4024;BME280;2026;51.002;13.668;2022-12-07T23:45:14;98496.28;;;0.63;82.56
4024;BME280;2026;51.002;13.668;2022-12-07T23:50:17;98485.03;;;0.71;81.71
4024;BME280;2026;51.002;13.668;2022-12-07T23:55:20;98485.03;;;0.71;81.62
